createdAt,value
2018-07-26T00:02:27.016Z,5.40
2018-07-26T00:04:55.294Z,5.53
2018-07-26T00:07:23.315Z,5.50
2018-07-26T00:09:51.278Z,5.53
2018-07-26T00:12:19.251Z,5.30
2018-07-26T00:14:47.218Z,4.90
2018-07-26T00:17:15.201Z,6.00
2018-07-26T00:19:43.214Z,5.20
2018-07-26T00:22:11.197Z,5.70
2018-07-26T00:24:39.171Z,5.30
2018-07-26T00:27:07.967Z,5.37
2018-07-26T00:29:36.006Z,5.60
2018-07-26T00:32:04.009Z,4.97
2018-07-26T00:34:31.952Z,4.87
2018-07-26T00:37:00.226Z,5.43
2018-07-26T00:39:29.152Z,5.80
2018-07-26T00:41:58.117Z,5.17
2018-07-26T00:44:26.495Z,5.40
2018-07-26T00:46:54.534Z,5.30
2018-07-26T00:49:22.511Z,5.80
2018-07-26T00:51:50.558Z,5.20
2018-07-26T00:54:18.535Z,6.30
2018-07-26T00:56:46.496Z,6.53
2018-07-26T00:59:14.485Z,5.70
2018-07-26T01:01:42.467Z,5.23
2018-07-26T01:04:10.473Z,5.70
2018-07-26T01:06:38.425Z,5.47
2018-07-26T01:09:07.473Z,6.50
2018-07-26T01:11:35.429Z,5.53
2018-07-26T01:14:03.613Z,6.33
2018-07-26T01:16:31.765Z,5.87
2018-07-26T01:19:00.718Z,4.93
2018-07-26T01:21:29.717Z,5.90
2018-07-26T01:23:58.311Z,5.70
2018-07-26T01:26:26.339Z,5.93
2018-07-26T01:28:54.364Z,5.73
2018-07-26T01:31:22.353Z,21.17
2018-07-26T01:33:50.399Z,7.43
2018-07-26T01:36:18.375Z,4.90
2018-07-26T01:38:46.354Z,5.13
2018-07-26T01:41:14.340Z,5.50
2018-07-26T01:43:49.917Z,5.30
2018-07-26T01:46:18.946Z,5.70
2018-07-26T01:48:46.939Z,5.47
2018-07-26T01:51:14.906Z,5.97
2018-07-26T01:53:43.505Z,5.57
2018-07-26T01:56:11.498Z,6.53
2018-07-26T01:58:39.449Z,5.73
2018-07-26T02:01:08.977Z,5.67
2018-07-26T02:03:37.306Z,7.00
2018-07-26T02:06:05.347Z,16.97
2018-07-26T02:08:33.681Z,11.53
2018-07-26T02:11:01.706Z,6.77
2018-07-26T02:13:30.127Z,5.90
2018-07-26T02:15:58.131Z,6.27
2018-07-26T02:18:26.111Z,6.33
2018-07-26T02:20:54.349Z,6.10
2018-07-26T02:23:22.561Z,5.63
2018-07-26T02:25:50.563Z,6.30
2018-07-26T02:28:18.502Z,5.80
2018-07-26T02:30:46.614Z,6.27
2018-07-26T02:33:14.731Z,6.00
2018-07-26T02:35:42.842Z,7.30
2018-07-26T02:38:11.121Z,6.40
2018-07-26T02:40:39.977Z,6.50
2018-07-26T02:43:09.999Z,5.97
2018-07-26T02:45:39.024Z,5.80
2018-07-26T02:48:07.821Z,5.57
2018-07-26T02:50:36.101Z,6.00
2018-07-26T02:53:04.190Z,6.60
2018-07-26T02:55:32.250Z,5.80
2018-07-26T02:58:00.222Z,6.10
2018-07-26T03:00:28.456Z,5.60
2018-07-26T03:02:56.403Z,5.73
2018-07-26T03:05:24.455Z,6.60
2018-07-26T03:07:52.415Z,9.23
2018-07-26T03:10:20.386Z,7.50
2018-07-26T03:12:48.374Z,7.23
2018-07-26T03:15:16.344Z,7.30
2018-07-26T03:17:44.324Z,6.63
2018-07-26T03:20:12.347Z,7.03
2018-07-26T03:22:40.895Z,6.70
2018-07-26T03:25:09.821Z,6.47
2018-07-26T03:27:38.400Z,6.00
2018-07-26T03:30:06.888Z,6.30
2018-07-26T03:32:34.967Z,6.43
2018-07-26T03:40:23.342Z,6.60
2018-07-26T03:42:51.591Z,6.40
2018-07-26T03:45:19.545Z,7.43
2018-07-26T03:47:47.555Z,5.63
2018-07-26T03:50:15.521Z,5.60
2018-07-26T03:52:43.566Z,6.23
2018-07-26T03:55:11.911Z,5.70
2018-07-26T03:57:41.169Z,6.87
2018-07-26T04:00:10.112Z,5.37
2018-07-26T04:02:38.442Z,5.43
2018-07-26T04:05:06.467Z,5.00
2018-07-26T04:07:34.438Z,5.50
2018-07-26T04:10:02.392Z,5.50
2018-07-26T04:12:30.367Z,5.67
2018-07-26T04:14:58.306Z,6.00
2018-07-26T04:17:26.287Z,5.57
2018-07-26T04:19:54.226Z,5.80
2018-07-26T04:22:22.234Z,5.80
2018-07-26T04:24:50.196Z,5.10
2018-07-26T04:27:18.180Z,5.87
2018-07-26T04:29:46.151Z,6.43
2018-07-26T04:32:14.215Z,5.73
2018-07-26T04:34:42.660Z,5.43
2018-07-26T04:37:11.692Z,5.43
2018-07-26T04:39:40.352Z,5.77
2018-07-26T04:42:08.418Z,5.50
2018-07-26T04:44:36.458Z,5.40
2018-07-26T04:47:04.418Z,5.50
2018-07-26T04:49:32.405Z,5.50
2018-07-26T04:52:00.359Z,5.23
2018-07-26T04:54:28.362Z,5.17
2018-07-26T04:56:56.337Z,5.53
2018-07-26T04:59:24.329Z,5.20
2018-07-26T05:01:52.299Z,5.87
2018-07-26T05:07:13.246Z,5.57
2018-07-26T05:09:42.306Z,5.90
2018-07-26T05:12:11.528Z,5.80
2018-07-26T05:14:39.884Z,5.83
2018-07-26T05:17:07.953Z,5.30
2018-07-26T05:19:35.943Z,6.53
2018-07-26T05:22:03.938Z,5.90
2018-07-26T05:24:31.910Z,6.10
2018-07-26T05:26:59.862Z,6.07
2018-07-26T05:29:27.893Z,7.03
2018-07-26T05:31:55.846Z,6.27
2018-07-26T05:34:23.828Z,5.80
2018-07-26T05:36:51.782Z,6.57
2018-07-26T05:39:19.760Z,6.00
2018-07-26T05:41:47.748Z,5.50
2018-07-26T05:44:15.725Z,5.70
2018-07-26T05:46:44.101Z,6.37
2018-07-26T05:49:13.122Z,6.10
2018-07-26T05:51:41.860Z,7.03
2018-07-26T05:54:09.876Z,6.60
2018-07-26T05:56:38.123Z,7.63
2018-07-26T05:59:06.105Z,8.20
2018-07-26T06:01:34.076Z,7.17
2018-07-26T06:04:02.072Z,7.50
2018-07-26T06:06:30.101Z,6.60
2018-07-26T06:08:58.092Z,6.40
2018-07-26T06:11:26.046Z,5.53
2018-07-26T06:13:54.013Z,6.90
2018-07-26T06:16:21.982Z,6.80
2018-07-26T06:18:49.997Z,6.07
2018-07-26T06:21:17.966Z,6.53
2018-07-26T06:23:45.948Z,8.20
2018-07-26T06:26:14.566Z,17.60
2018-07-26T06:28:43.475Z,6.87
2018-07-26T06:31:12.066Z,10.30
2018-07-26T06:33:40.198Z,6.60
2018-07-26T06:36:08.159Z,7.43
2018-07-26T06:38:36.151Z,5.90
2018-07-26T06:41:04.157Z,6.40
2018-07-26T06:43:32.123Z,6.90
2018-07-26T06:46:00.109Z,5.90
2018-07-26T06:48:28.064Z,6.67
2018-07-26T06:50:56.044Z,6.30
2018-07-26T06:53:24.053Z,5.60
2018-07-26T06:55:52.060Z,5.30
2018-07-26T06:58:20.013Z,7.20
2018-07-26T07:00:48.014Z,6.30
2018-07-26T07:03:16.129Z,5.70
2018-07-26T07:05:45.160Z,6.03
2018-07-26T07:08:14.157Z,6.60
2018-07-26T07:10:42.754Z,4.77
2018-07-26T07:13:10.782Z,5.60
2018-07-26T07:15:38.794Z,5.00
2018-07-26T07:18:06.755Z,4.43
2018-07-26T07:20:34.760Z,5.10
2018-07-26T07:23:02.726Z,5.83
2018-07-26T07:25:30.705Z,4.67
2018-07-26T07:27:58.670Z,6.17
2018-07-26T07:30:26.663Z,4.77
2018-07-26T07:32:54.632Z,6.53
2018-07-26T07:35:22.623Z,7.47
2018-07-26T07:37:50.592Z,8.30
2018-07-26T07:40:18.601Z,5.17
2018-07-26T07:42:46.901Z,4.67
2018-07-26T07:45:15.952Z,4.50
2018-07-26T07:47:45.060Z,4.50
2018-07-26T07:50:14.590Z,5.13
2018-07-26T07:52:43.050Z,4.53
2018-07-26T07:55:11.101Z,4.80
2018-07-26T07:57:39.072Z,6.70
2018-07-26T08:00:07.787Z,7.40
2018-07-26T08:02:35.767Z,6.33
2018-07-26T08:05:04.011Z,6.10
2018-07-26T08:07:31.969Z,5.73
2018-07-26T08:09:59.978Z,4.40
2018-07-26T08:12:27.948Z,4.70
2018-07-26T08:14:55.904Z,5.80
2018-07-26T08:17:23.891Z,5.63
2018-07-26T08:19:51.853Z,6.70
2018-07-26T08:22:19.835Z,8.17
2018-07-26T08:24:47.882Z,4.73
2018-07-26T08:27:16.654Z,6.00
2018-07-26T08:29:45.766Z,6.83
2018-07-26T08:32:14.352Z,4.03
2018-07-26T08:34:42.381Z,4.90
2018-07-26T08:37:10.354Z,5.20
2018-07-26T08:39:38.318Z,3.63
2018-07-26T08:42:06.321Z,5.10
2018-07-26T08:44:34.312Z,5.90
2018-07-26T08:47:02.303Z,5.83
2018-07-26T08:49:30.248Z,5.70
2018-07-26T08:51:58.243Z,5.15
2018-07-26T08:54:26.212Z,6.13
2018-07-26T08:56:54.200Z,4.60
2018-07-26T08:59:22.143Z,5.20
2018-07-26T09:01:50.128Z,5.70
2018-07-26T09:04:18.374Z,4.67
2018-07-26T09:06:46.405Z,3.90
2018-07-26T09:09:14.394Z,5.43
2018-07-26T09:11:42.503Z,5.27
2018-07-26T09:14:10.725Z,4.10
2018-07-26T09:16:39.774Z,5.90
2018-07-26T09:19:08.887Z,3.70
2018-07-26T09:21:37.323Z,5.57
2018-07-26T09:24:05.484Z,3.57
2018-07-26T09:26:33.451Z,4.30
2018-07-26T09:29:01.516Z,3.30
2018-07-26T09:31:29.459Z,4.50
2018-07-26T09:33:57.538Z,4.50
2018-07-26T09:36:25.526Z,3.77
2018-07-26T09:38:53.503Z,3.17
2018-07-26T09:41:21.503Z,3.90
2018-07-26T09:43:49.455Z,3.00
2018-07-26T09:46:18.003Z,4.10
2018-07-26T09:48:45.968Z,4.03
2018-07-26T09:51:13.913Z,3.30
2018-07-26T09:53:42.099Z,3.07
2018-07-26T09:56:10.850Z,3.00
2018-07-26T09:58:39.840Z,3.10
2018-07-26T10:01:13.271Z,2.60
2018-07-26T10:03:41.703Z,2.70
2018-07-26T10:06:10.621Z,3.00
2018-07-26T10:08:39.499Z,2.30
2018-07-26T10:11:07.880Z,2.47
2018-07-26T10:13:35.922Z,2.10
2018-07-26T10:16:03.924Z,3.00
2018-07-26T10:18:31.906Z,2.73
2018-07-26T10:20:59.850Z,2.10
2018-07-26T10:23:27.833Z,2.57
2018-07-26T10:25:55.829Z,4.80
2018-07-26T10:28:23.783Z,4.93
2018-07-26T10:30:51.765Z,2.50
2018-07-26T10:33:19.750Z,2.60
2018-07-26T10:35:47.699Z,2.30
2018-07-26T10:38:15.706Z,2.93
2018-07-26T10:40:43.682Z,2.70
2018-07-26T10:43:11.942Z,2.50
2018-07-26T10:45:40.925Z,3.23
2018-07-26T10:48:09.783Z,2.60
2018-07-26T10:50:38.056Z,2.53
2018-07-26T10:53:06.137Z,2.90
2018-07-26T10:55:34.083Z,2.57
2018-07-26T10:58:02.066Z,2.40
2018-07-26T11:00:30.033Z,3.07
2018-07-26T11:02:58.040Z,3.10
2018-07-26T11:05:25.994Z,2.77
2018-07-26T11:07:53.972Z,3.00
2018-07-26T11:10:21.942Z,2.50
2018-07-26T11:12:49.924Z,2.60
2018-07-26T11:15:21.440Z,2.90
2018-07-26T11:17:49.252Z,2.53
2018-07-26T11:20:17.277Z,2.43
2018-07-26T11:22:45.254Z,2.43
2018-07-26T11:25:13.409Z,2.27
2018-07-26T11:27:42.149Z,2.17
2018-07-26T11:30:11.090Z,2.70
2018-07-26T11:32:41.226Z,2.50
2018-07-26T11:35:10.215Z,2.77
2018-07-26T11:37:38.292Z,3.10
2018-07-26T11:40:06.548Z,2.80
2018-07-26T11:42:35.373Z,4.30
2018-07-26T11:45:04.180Z,3.40
2018-07-26T11:47:33.204Z,2.30
2018-07-26T11:50:02.577Z,2.23
2018-07-26T11:52:31.123Z,2.53
2018-07-26T11:54:59.383Z,2.47
2018-07-26T11:57:28.237Z,4.13
2018-07-26T11:59:57.080Z,2.47
2018-07-26T12:02:25.643Z,3.33
2018-07-26T12:04:53.772Z,2.03
2018-07-26T12:07:21.726Z,3.00
2018-07-26T12:09:49.740Z,3.20
2018-07-26T12:12:17.731Z,3.40
2018-07-26T12:14:45.713Z,2.50
2018-07-26T12:17:13.881Z,2.40
2018-07-26T12:19:42.804Z,2.97
2018-07-26T12:22:11.969Z,2.73
2018-07-26T12:24:40.570Z,2.37
2018-07-26T12:27:08.693Z,2.53
2018-07-26T12:29:36.780Z,2.30
2018-07-26T12:32:04.778Z,2.10
2018-07-26T12:34:32.755Z,2.20
2018-07-26T12:37:00.710Z,2.40
2018-07-26T12:39:28.698Z,2.27
2018-07-26T12:41:56.688Z,2.50
2018-07-26T12:44:24.692Z,1.90
2018-07-26T12:46:52.650Z,2.23
2018-07-26T12:49:20.631Z,2.30
2018-07-26T12:51:48.610Z,2.23
2018-07-26T12:54:16.602Z,3.40
2018-07-26T12:56:44.673Z,2.77
2018-07-26T12:59:13.625Z,2.50
2018-07-26T13:01:42.648Z,2.40
2018-07-26T13:04:11.355Z,2.10
2018-07-26T13:06:39.489Z,2.40
2018-07-26T13:09:08.130Z,2.40
2018-07-26T13:11:36.092Z,2.07
2018-07-26T13:14:04.472Z,1.80
2018-07-26T13:16:32.448Z,2.67
2018-07-26T13:19:00.424Z,1.93
2018-07-26T13:21:28.407Z,2.13
2018-07-26T13:23:56.409Z,2.10
2018-07-26T13:26:24.378Z,2.43
2018-07-26T13:28:52.327Z,2.10
2018-07-26T13:31:20.432Z,2.80
2018-07-26T13:33:49.531Z,4.60
2018-07-26T13:36:18.278Z,11.20
2018-07-26T13:38:47.393Z,2.93
2018-07-26T13:41:16.691Z,2.30
2018-07-26T13:43:45.605Z,2.10
2018-07-26T13:46:14.662Z,2.13
2018-07-26T13:48:44.587Z,2.23
2018-07-26T13:51:13.912Z,2.33
2018-07-26T13:53:42.944Z,2.30
2018-07-26T13:56:11.522Z,2.30
2018-07-26T13:58:39.634Z,2.43
2018-07-26T14:01:07.623Z,2.40
2018-07-26T14:03:35.627Z,2.33
2018-07-26T14:06:03.607Z,1.97
2018-07-26T14:08:31.562Z,3.07
2018-07-26T14:10:59.655Z,3.60
2018-07-26T14:13:27.598Z,2.47
2018-07-26T14:15:55.652Z,3.50
2018-07-26T14:18:23.550Z,2.47
2018-07-26T14:20:51.612Z,2.40
2018-07-26T14:23:24.961Z,2.30
2018-07-26T14:28:27.154Z,2.67
2018-07-26T14:30:55.117Z,2.33
2018-07-26T14:33:23.086Z,2.30
2018-07-26T14:35:51.058Z,2.20
2018-07-26T14:38:19.072Z,2.03
2018-07-26T14:40:47.078Z,2.03
2018-07-26T14:43:15.550Z,2.50
2018-07-26T14:45:44.632Z,2.70
2018-07-26T14:48:13.322Z,2.10
2018-07-26T14:50:41.499Z,2.37
2018-07-26T14:53:09.606Z,1.87
2018-07-26T14:55:37.597Z,2.10
2018-07-26T14:58:05.557Z,2.30
2018-07-26T15:00:33.554Z,2.10
2018-07-26T15:03:01.706Z,2.63
2018-07-26T15:08:15.690Z,2.03
2018-07-26T15:10:44.810Z,2.83
2018-07-26T15:13:13.395Z,2.10
2018-07-26T15:15:41.507Z,2.80
2018-07-26T15:18:09.606Z,2.47
2018-07-26T15:20:37.602Z,2.47
2018-07-26T15:23:05.602Z,2.60
2018-07-26T15:25:33.604Z,2.43
2018-07-26T15:28:01.561Z,2.50
2018-07-26T15:30:29.529Z,2.33
2018-07-26T15:32:57.531Z,2.20
2018-07-26T15:35:25.495Z,2.80
2018-07-26T15:37:53.467Z,2.80
2018-07-26T15:40:21.442Z,2.10
2018-07-26T15:42:49.419Z,2.80
2018-07-26T15:45:17.525Z,2.30
2018-07-26T15:47:46.374Z,2.20
2018-07-26T15:50:15.502Z,2.30
2018-07-26T15:52:44.390Z,5.70
2018-07-26T15:55:12.466Z,3.50
2018-07-26T15:57:40.609Z,17.00
2018-07-26T16:00:09.646Z,6.40
2018-07-26T16:02:37.659Z,3.03
2018-07-26T16:05:06.045Z,2.80
2018-07-26T16:07:34.047Z,2.53
2018-07-26T16:10:02.027Z,2.80
2018-07-26T16:12:30.121Z,3.33
2018-07-26T16:14:58.014Z,2.63
2018-07-26T16:17:26.053Z,2.90
2018-07-26T16:19:53.957Z,2.70
2018-07-26T16:22:21.952Z,2.80
2018-07-26T16:24:49.921Z,2.80
2018-07-26T16:27:18.253Z,2.07
2018-07-26T16:29:47.303Z,3.20
2018-07-26T16:32:16.405Z,2.20
2018-07-26T16:34:46.319Z,2.50
2018-07-26T16:37:15.218Z,3.30
2018-07-26T16:39:43.806Z,3.07
2018-07-26T16:42:12.597Z,5.80
2018-07-26T16:44:40.939Z,4.30
2018-07-26T16:47:09.230Z,3.30
2018-07-26T16:49:37.371Z,3.13
2018-07-26T16:52:05.655Z,3.77
2018-07-26T16:54:33.832Z,3.53
2018-07-26T16:57:02.116Z,3.53
2018-07-26T16:59:30.880Z,3.10
2018-07-26T17:01:58.999Z,3.10
2018-07-26T17:04:27.034Z,3.90
2018-07-26T17:06:55.001Z,3.90
2018-07-26T17:09:22.982Z,4.13
2018-07-26T17:11:50.939Z,3.83
2018-07-26T17:14:19.234Z,3.70
2018-07-26T17:16:48.983Z,3.13
2018-07-26T17:19:18.209Z,3.93
2018-07-26T17:21:47.071Z,4.47
2018-07-26T17:24:15.548Z,4.27
2018-07-26T17:26:43.668Z,4.00
2018-07-26T17:29:11.718Z,4.10
2018-07-26T17:31:39.746Z,3.90
2018-07-26T17:34:07.766Z,3.53
2018-07-26T17:36:35.742Z,3.60
2018-07-26T17:39:04.301Z,4.20
2018-07-26T17:41:32.321Z,4.40
2018-07-26T17:44:00.299Z,3.50
2018-07-26T17:46:28.285Z,3.67
2018-07-26T17:48:56.305Z,4.00
2018-07-26T17:51:24.269Z,4.27
2018-07-26T17:53:52.314Z,10.10
2018-07-26T17:56:20.684Z,7.70
2018-07-26T17:58:49.760Z,4.30
2018-07-26T18:01:18.786Z,4.27
2018-07-26T18:03:47.360Z,3.60
2018-07-26T18:06:15.376Z,3.93
2018-07-26T18:08:43.509Z,4.20
2018-07-26T18:11:13.312Z,4.07
2018-07-26T18:13:42.435Z,4.03
2018-07-26T18:16:10.495Z,4.17
2018-07-26T18:18:38.494Z,4.67
2018-07-26T18:21:06.757Z,4.50
2018-07-26T18:23:34.984Z,4.00
2018-07-26T18:26:03.060Z,4.50
2018-07-26T18:28:31.100Z,3.90
2018-07-26T18:30:59.079Z,3.85
2018-07-26T18:33:27.190Z,3.20
2018-07-26T18:35:56.116Z,3.70
2018-07-26T18:38:24.420Z,4.07
2018-07-26T18:40:52.596Z,4.30
2018-07-26T18:43:21.963Z,3.50
2018-07-26T18:45:51.422Z,5.00
2018-07-26T18:48:21.713Z,4.30
2018-07-26T18:50:52.115Z,4.50
2018-07-26T18:53:21.582Z,3.90
2018-07-26T18:55:51.941Z,4.37
2018-07-26T18:58:21.878Z,3.87
2018-07-26T19:00:50.868Z,4.47
2018-07-26T19:03:21.164Z,4.67
2018-07-26T19:05:51.231Z,4.33
2018-07-26T19:08:20.096Z,4.10
2018-07-26T19:10:48.556Z,3.43
2018-07-26T19:13:16.686Z,3.90
2018-07-26T19:15:44.694Z,3.67
2018-07-26T19:18:12.650Z,4.20
2018-07-26T19:20:40.676Z,3.43
2018-07-26T19:23:08.618Z,4.00
2018-07-26T19:25:36.616Z,3.70
2018-07-26T19:28:04.595Z,4.33
2018-07-26T19:30:32.574Z,3.90
2018-07-26T19:33:00.522Z,5.97
2018-07-26T19:35:28.518Z,7.90
2018-07-26T19:37:56.487Z,5.63
2018-07-26T19:40:24.543Z,4.90
2018-07-26T19:42:52.916Z,3.87
2018-07-26T19:45:22.003Z,3.93
2018-07-26T19:47:50.748Z,4.10
2018-07-26T19:50:19.038Z,5.20
2018-07-26T19:52:47.143Z,4.10
2018-07-26T19:55:15.138Z,4.43
2018-07-26T19:57:43.098Z,4.83
2018-07-26T20:00:11.267Z,5.13
2018-07-26T20:02:39.486Z,5.77
2018-07-26T20:05:08.195Z,5.33
2018-07-26T20:07:36.159Z,5.60
2018-07-26T20:10:05.577Z,6.13
2018-07-26T20:12:33.487Z,4.03
2018-07-26T20:15:01.655Z,4.57
2018-07-26T20:17:29.827Z,5.03
2018-07-26T20:19:59.548Z,12.07
2018-07-26T20:22:27.872Z,10.07
2018-07-26T20:24:56.715Z,5.80
2018-07-26T20:27:25.562Z,6.23
2018-07-26T20:29:54.261Z,5.30
2018-07-26T20:32:24.270Z,5.40
2018-07-26T20:34:53.523Z,5.07
2018-07-26T20:37:22.729Z,6.23
2018-07-26T20:39:52.859Z,5.70
2018-07-26T20:42:21.771Z,6.67
2018-07-26T20:44:49.941Z,6.20
2018-07-26T20:47:18.081Z,6.00
2018-07-26T20:49:46.044Z,5.00
2018-07-26T20:52:14.064Z,5.00
2018-07-26T20:54:42.031Z,6.60
2018-07-26T20:57:10.069Z,5.75
2018-07-26T20:59:38.138Z,4.80
2018-07-26T21:02:06.196Z,4.80
2018-07-26T21:04:34.145Z,6.70
2018-07-26T21:07:02.160Z,6.10
2018-07-26T21:09:30.138Z,5.20
2018-07-26T21:11:58.114Z,4.97
2018-07-26T21:14:26.190Z,6.33
2018-07-26T21:16:54.958Z,4.40
2018-07-26T21:19:23.968Z,5.30
2018-07-26T21:21:52.559Z,5.20
2018-07-26T21:24:20.614Z,5.10
2018-07-26T21:26:48.727Z,5.07
2018-07-26T21:29:16.702Z,4.87
2018-07-26T21:31:44.789Z,5.90
2018-07-26T21:34:12.855Z,6.00
2018-07-26T21:36:40.849Z,5.40
2018-07-26T21:39:09.587Z,5.40
2018-07-26T21:41:37.603Z,5.10
2018-07-26T21:44:05.610Z,5.33
2018-07-26T21:46:33.589Z,5.43
2018-07-26T21:49:01.640Z,5.00
2018-07-26T21:51:29.642Z,5.50
2018-07-26T21:53:57.611Z,5.17
2018-07-26T21:56:26.272Z,6.50
2018-07-26T21:58:55.287Z,5.40
2018-07-26T22:01:23.966Z,5.37
2018-07-26T22:03:52.144Z,5.37
2018-07-26T22:06:20.277Z,5.57
2018-07-26T22:08:48.301Z,5.40
2018-07-26T22:11:16.251Z,5.07
2018-07-26T22:13:44.213Z,5.73
2018-07-26T22:16:12.233Z,4.97
2018-07-26T22:18:40.183Z,4.50
2018-07-26T22:21:08.171Z,6.23
2018-07-26T22:23:36.205Z,5.17
2018-07-26T22:26:04.160Z,5.90
2018-07-26T22:28:32.192Z,5.37
2018-07-26T22:31:00.149Z,5.53
2018-07-26T22:33:28.265Z,5.17
2018-07-26T22:35:57.066Z,5.03
2018-07-26T22:38:26.161Z,5.40
2018-07-26T22:40:54.754Z,7.00
2018-07-26T22:43:22.889Z,6.07
2018-07-26T22:45:51.119Z,6.10
2018-07-26T22:48:19.097Z,4.80
2018-07-26T22:50:47.070Z,5.70
2018-07-26T22:53:15.058Z,5.53
2018-07-26T22:55:43.038Z,5.03
2018-07-26T22:58:11.057Z,4.87
2018-07-26T23:00:39.029Z,6.00
2018-07-26T23:03:07.042Z,5.23
2018-07-26T23:05:35.010Z,6.30
2018-07-26T23:08:03.061Z,6.70
2018-07-26T23:10:31.010Z,5.13
2018-07-26T23:12:59.161Z,5.70
2018-07-26T23:15:28.008Z,5.80
2018-07-26T23:17:56.884Z,4.70
2018-07-26T23:20:25.338Z,5.50
2018-07-26T23:22:55.051Z,5.80
2018-07-26T23:25:23.167Z,5.30
2018-07-26T23:27:51.134Z,4.93
2018-07-26T23:30:19.124Z,5.50
2018-07-26T23:32:47.095Z,5.90
2018-07-26T23:35:15.060Z,6.07
2018-07-26T23:37:43.037Z,6.07
2018-07-26T23:40:11.590Z,5.70
2018-07-26T23:42:40.122Z,4.87
2018-07-26T23:45:08.092Z,5.97
2018-07-26T23:47:36.072Z,4.73
2018-07-26T23:50:04.144Z,5.30
2018-07-26T23:52:32.126Z,5.90
2018-07-26T23:55:00.469Z,5.67
2018-07-26T23:57:29.303Z,5.90
2018-07-26T23:59:58.199Z,5.47
